Time;durP1;ratioP1;P1;durP2;ratioP2;P2;SDS_P1;SDS_P2;PMS_P1;PMS_P2;Temp;Humidity;BMP_temperature;BMP_pressure;BME280_temperature;BME280_humidity;BME280_pressure;Samples;Min_cycle;Max_cycle;Signal;HPM_P1;HPM_P2
2021/10/12 00:03:02;;;;;;;25.33;18.93;;;;;;;13.20;60.48;98538.44;8266503;28;20213;-64
2021/10/12 00:07:07;;;;;;;23.87;19.13;;;;;;;13.14;60.70;98541.34;8258066;28;20202;-64
2021/10/12 00:11:09;;;;;;;22.97;19.03;;;;;;;13.18;60.65;98542.88;8257764;28;20233;-64
2021/10/12 00:15:12;;;;;;;25.10;19.70;;;;;;;13.18;60.95;98551.50;8257621;28;20230;-64
2021/10/12 00:19:17;;;;;;;22.93;19.93;;;;;;;13.08;61.28;98547.66;8257589;28;20202;-64
2021/10/12 00:23:21;;;;;;;25.13;19.20;;;;;;;13.18;60.90;98541.09;8257451;28;20218;-64
2021/10/12 00:27:24;;;;;;;25.00;20.90;;;;;;;13.08;61.24;98535.50;8257525;28;20234;-64
2021/10/12 00:31:28;;;;;;;24.30;19.57;;;;;;;13.20;60.88;98530.66;8257445;28;20210;-64
2021/10/12 00:35:31;;;;;;;26.53;20.13;;;;;;;13.18;60.86;98529.88;8283723;28;20236;-64
2021/10/12 00:39:35;;;;;;;27.47;20.03;;;;;;;13.24;60.76;98534.78;8321616;28;20201;-64
2021/10/12 00:43:38;;;;;;;25.30;19.50;;;;;;;13.24;60.56;98516.56;8321624;28;20204;-64
2021/10/12 00:47:55;;;;;;;22.80;18.57;;;;;;;13.31;60.15;98515.41;8321400;28;20208;-64
2021/10/12 00:51:58;;;;;;;27.10;19.40;;;;;;;13.24;60.60;98511.38;8321369;28;20201;-64
2021/10/12 00:56:03;;;;;;;24.40;19.27;;;;;;;13.24;60.62;98508.78;8320980;28;20229;-64
2021/10/12 01:00:07;;;;;;;23.57;20.17;;;;;;;13.33;60.47;98507.50;8321198;28;20212;-64
2021/10/12 01:04:10;;;;;;;25.90;19.73;;;;;;;13.27;60.42;98504.28;8289190;28;20516;-64
2021/10/12 01:08:13;;;;;;;26.80;20.27;;;;;;;13.25;60.69;98498.31;8287061;28;20201;-64
2021/10/12 01:12:18;;;;;;;25.37;19.97;;;;;;;13.36;60.49;98500.41;8287966;28;20241;-64
2021/10/12 01:16:22;;;;;;;27.20;19.30;;;;;;;13.26;60.44;98494.78;8287979;28;20230;-64
2021/10/12 01:20:26;;;;;;;26.80;20.23;;;;;;;13.34;60.29;98491.00;8287897;28;20201;-64
2021/10/12 01:24:30;;;;;;;25.23;20.20;;;;;;;13.28;60.46;98486.91;8287682;28;20508;-64
2021/10/12 01:28:33;;;;;;;27.53;19.03;;;;;;;13.31;60.63;98486.81;8287460;28;20209;-64
2021/10/12 01:32:37;;;;;;;26.07;19.37;;;;;;;13.32;60.36;98483.28;8287361;28;20229;-64
2021/10/12 01:36:40;;;;;;;25.03;19.03;;;;;;;13.25;60.83;98474.03;8287427;28;20201;-64
2021/10/12 01:40:45;;;;;;;25.60;19.43;;;;;;;13.33;60.39;98465.91;8287206;28;20214;-64
2021/10/12 01:44:48;;;;;;;22.60;19.23;;;;;;;13.32;60.54;98467.66;8287207;28;20664;-64
2021/10/12 01:48:50;;;;;;;24.00;19.63;;;;;;;13.27;60.55;98467.03;8287015;28;20205;-64
2021/10/12 01:52:53;;;;;;;21.97;18.47;;;;;;;13.27;60.47;98460.06;8286821;28;20217;-64
2021/10/12 01:56:57;;;;;;;23.00;18.80;;;;;;;13.34;60.49;98463.22;8286628;28;20213;-64
2021/10/12 02:01:00;;;;;;;25.27;19.33;;;;;;;13.25;60.58;98450.63;8286464;28;20232;-64
2021/10/12 02:05:05;;;;;;;24.70;19.17;;;;;;;13.33;60.73;98450.28;8286332;28;20209;-64
2021/10/12 02:09:08;;;;;;;25.80;19.47;;;;;;;13.15;60.96;98442.41;8286300;28;20363;-64
2021/10/12 02:13:12;;;;;;;22.83;19.60;;;;;;;13.23;60.36;98431.66;8286018;28;20234;-64
2021/10/12 02:17:15;;;;;;;23.87;19.13;;;;;;;13.29;60.26;98436.59;8286035;28;20205;-64
2021/10/12 02:21:18;;;;;;;24.17;19.70;;;;;;;13.26;60.35;98428.91;8285679;28;20524;-64
2021/10/12 02:25:21;;;;;;;25.93;20.03;;;;;;;13.24;60.92;98428.16;8285649;28;20216;-65
2021/10/12 02:29:25;;;;;;;27.53;21.10;;;;;;;13.12;60.93;98413.97;8285489;28;20219;-64
2021/10/12 02:33:28;;;;;;;28.20;20.17;;;;;;;13.13;60.93;98407.84;8285391;28;20242;-64
2021/10/12 02:37:31;;;;;;;26.23;19.73;;;;;;;13.21;60.70;98397.06;8285501;28;20220;-64
2021/10/12 02:41:34;;;;;;;29.53;21.20;;;;;;;13.21;60.60;98403.16;8285085;28;20208;-64
2021/10/12 02:45:38;;;;;;;27.70;20.03;;;;;;;13.21;60.46;98400.53;8285306;28;20221;-64
2021/10/12 02:49:41;;;;;;;28.30;19.33;;;;;;;13.24;60.29;98405.56;8285149;28;20198;-64
2021/10/12 02:53:44;;;;;;;27.40;20.97;;;;;;;13.18;60.58;98402.44;8285061;28;20229;-64
2021/10/12 02:57:47;;;;;;;27.20;20.53;;;;;;;13.20;60.44;98401.44;8284930;28;20209;-64
2021/10/12 03:01:55;;;;;;;28.07;21.50;;;;;;;13.22;60.36;98390.97;8284874;28;20244;-64
2021/10/12 03:05:58;;;;;;;28.43;21.00;;;;;;;13.21;60.76;98384.06;8284968;28;20490;-64
2021/10/12 03:10:02;;;;;;;27.17;20.07;;;;;;;13.28;60.32;98382.88;8284522;28;20206;-64
2021/10/12 03:14:04;;;;;;;29.10;21.37;;;;;;;13.27;60.56;98376.00;8284474;28;20226;-64
2021/10/12 03:18:09;;;;;;;29.93;21.23;;;;;;;13.23;60.60;98370.09;8284598;28;20366;-64
2021/10/12 03:22:14;;;;;;;29.27;21.53;;;;;;;13.11;60.74;98373.28;8284455;28;20212;-64
2021/10/12 03:26:17;;;;;;;28.60;22.37;;;;;;;13.21;60.46;98368.47;8284562;28;20212;-64
2021/10/12 03:30:20;;;;;;;27.43;21.27;;;;;;;13.26;60.41;98356.94;8284268;28;20213;-64
2021/10/12 03:34:24;;;;;;;29.00;21.23;;;;;;;13.25;60.34;98354.41;8289793;28;20422;-64
2021/10/12 03:38:28;;;;;;;25.50;20.60;;;;;;;13.23;60.38;98351.03;8291101;28;20401;-64
2021/10/12 03:42:31;;;;;;;28.77;20.23;;;;;;;13.24;60.20;98350.97;8290625;28;20210;-64
2021/10/12 03:46:34;;;;;;;24.90;20.33;;;;;;;13.20;60.27;98352.03;8290757;28;20224;-64
2021/10/12 03:50:38;;;;;;;26.97;19.93;;;;;;;13.19;60.56;98349.50;8290473;28;20216;-64
2021/10/12 03:54:41;;;;;;;25.97;19.97;;;;;;;13.24;60.28;98342.31;8290566;28;20225;-64
2021/10/12 03:58:44;;;;;;;26.63;20.47;;;;;;;13.13;60.49;98342.84;8312324;28;20205;-64
2021/10/12 04:02:47;;;;;;;27.40;19.93;;;;;;;13.22;60.33;98338.97;8302273;28;20208;-64
2021/10/12 04:06:51;;;;;;;27.33;18.77;;;;;;;13.19;60.59;98341.69;8290063;28;20205;-64
2021/10/12 04:10:54;;;;;;;24.50;18.40;;;;;;;13.21;60.18;98338.13;8289842;28;20237;-64
2021/10/12 04:14:57;;;;;;;28.63;19.80;;;;;;;13.18;60.16;98340.03;8289897;28;20409;-64
2021/10/12 04:19:00;;;;;;;27.67;19.67;;;;;;;13.20;60.70;98336.44;8289878;28;20202;-64
2021/10/12 04:23:08;;;;;;;27.53;19.83;;;;;;;13.15;60.63;98332.38;8299980;28;20201;-64
2021/10/12 04:27:11;;;;;;;24.87;19.33;;;;;;;13.20;60.07;98323.44;8322025;28;20209;-64
2021/10/12 04:31:14;;;;;;;27.07;20.37;;;;;;;13.23;60.09;98325.03;8321841;28;20484;-64
2021/10/12 04:35:17;;;;;;;25.63;19.63;;;;;;;13.29;60.35;98319.53;8321589;28;20236;-64
2021/10/12 04:39:22;;;;;;;26.33;19.97;;;;;;;13.29;60.17;98317.78;8321577;28;20201;-64
2021/10/12 04:43:25;;;;;;;29.33;20.40;;;;;;;13.32;60.14;98318.56;8321082;28;20216;-64
2021/10/12 04:47:28;;;;;;;28.73;21.20;;;;;;;13.29;60.41;98311.75;8321471;28;20205;-64
2021/10/12 04:51:31;;;;;;;26.77;19.83;;;;;;;13.35;60.17;98315.81;8321307;28;20201;-64
2021/10/12 04:55:40;;;;;;;25.33;20.87;;;;;;;13.35;59.97;98313.22;8321070;28;20236;-64
2021/10/12 04:59:43;;;;;;;26.13;20.20;;;;;;;13.28;60.62;98316.06;8302413;28;20216;-64
2021/10/12 05:03:46;;;;;;;26.63;20.53;;;;;;;13.29;60.61;98306.53;8288762;28;20213;-65
2021/10/12 05:07:48;;;;;;;27.10;21.27;;;;;;;13.31;60.47;98307.34;8316242;28;20208;-64
2021/10/12 05:11:53;;;;;;;29.53;21.83;;;;;;;13.22;60.54;98310.34;8306715;28;20235;-64
2021/10/12 05:15:58;;;;;;;24.50;19.43;;;;;;;13.26;60.59;98304.06;8295599;28;20241;-64
2021/10/12 05:20:01;;;;;;;27.60;20.67;;;;;;;13.32;60.52;98305.56;8287861;28;20213;-64
2021/10/12 05:24:05;;;;;;;14.20;10.03;;;;;;;14.72;65.94;98299.06;8287922;28;20212;-62
2021/10/12 05:28:09;;;;;;;33.37;13.07;;;;;;;15.52;59.83;98302.28;8287714;28;20241;-63
2021/10/12 05:32:12;;;;;;;31.27;14.43;;;;;;;15.99;56.51;98297.75;8287183;28;20212;-63
2021/10/12 05:36:16;;;;;;;20.87;14.30;;;;;;;15.92;54.11;98286.88;8315789;28;20225;-66
2021/10/12 05:40:19;;;;;;;23.77;17.53;;;;;;;14.69;56.51;98296.59;8319783;28;20200;-64
2021/10/12 05:44:23;;;;;;;24.77;17.40;;;;;;;14.40;57.47;98293.81;8305076;28;20198;-64
2021/10/12 05:48:26;;;;;;;24.97;17.03;;;;;;;14.19;57.81;98290.59;8287043;28;20208;-64
2021/10/12 05:52:31;;;;;;;23.37;16.93;;;;;;;13.94;58.87;98291.09;8287006;28;20389;-64
2021/10/12 05:56:40;;;;;;;21.20;17.20;;;;;;;13.80;59.20;98291.81;8285990;28;20442;-64
2021/10/12 06:00:45;;;;;;;22.00;17.20;;;;;;;13.66;59.99;98296.88;8286627;28;20204;-64
2021/10/12 06:04:48;;;;;;;24.63;16.10;;;;;;;13.63;59.90;98302.22;8286554;28;20212;-64
2021/10/12 06:08:51;;;;;;;23.50;16.27;;;;;;;13.57;60.56;98294.75;8286417;28;20202;-64
2021/10/12 06:12:54;;;;;;;23.10;15.90;;;;;;;13.52;60.35;98288.94;8285974;28;20229;-64
2021/10/12 06:16:58;;;;;;;20.33;15.60;;;;;;;13.61;60.62;98291.06;8286069;28;20226;-64
2021/10/12 06:21:01;;;;;;;22.67;16.70;;;;;;;13.59;60.51;98300.72;8285974;28;20201;-64
2021/10/12 06:25:04;;;;;;;18.77;15.33;;;;;;;13.58;60.41;98306.84;8286248;28;20206;-64
2021/10/12 06:29:07;;;;;;;17.70;15.13;;;;;;;13.53;60.86;98307.06;8285765;28;20201;-64
2021/10/12 06:33:12;;;;;;;20.87;15.23;;;;;;;13.43;61.20;98316.28;8285551;28;20416;-64
2021/10/12 06:37:15;;;;;;;25.17;12.43;;;;;;;13.98;61.06;98308.22;8285408;28;20234;-64
2021/10/12 06:41:18;;;;;;;19.53;13.93;;;;;;;13.41;61.04;98311.13;8285463;28;20514;-64
2021/10/12 06:45:41;;;;;;;15.40;13.07;;;;;;;13.50;60.73;98307.25;8285206;28;20213;-64
2021/10/12 06:49:45;;;;;;;14.63;13.10;;;;;;;13.59;60.96;98309.34;8285415;28;20202;-64
2021/10/12 06:53:49;;;;;;;18.87;13.27;;;;;;;13.61;60.75;98299.75;8285178;28;20213;-64
2021/10/12 06:57:52;;;;;;;17.50;12.97;;;;;;;13.60;60.90;98289.41;8284959;28;20320;-64
2021/10/12 07:01:55;;;;;;;15.40;12.70;;;;;;;13.52;61.29;98283.72;8284714;28;20213;-64
2021/10/12 07:05:59;;;;;;;13.97;12.00;;;;;;;13.67;60.50;98281.19;8284895;28;20209;-64
2021/10/12 07:10:04;;;;;;;14.17;11.43;;;;;;;13.44;60.65;98289.31;8284741;28;20493;-64
2021/10/12 07:14:07;;;;;;;15.03;11.97;;;;;;;13.60;60.66;98289.41;8284670;28;20205;-64
2021/10/12 07:18:11;;;;;;;14.10;11.77;;;;;;;13.54;60.94;98290.56;8284513;28;20230;-64
2021/10/12 07:22:15;;;;;;;13.63;10.90;;;;;;;13.58;60.75;98284.28;8284412;28;20213;-64
2021/10/12 07:26:18;;;;;;;14.53;11.23;;;;;;;13.58;60.29;98286.03;8282667;28;20212;-64
2021/10/12 07:30:21;;;;;;;12.73;9.60;;;;;;;13.57;60.05;98279.97;8281503;28;20202;-65
2021/10/12 07:34:24;;;;;;;14.40;10.10;;;;;;;13.71;59.72;98274.06;8280211;28;20241;-65
2021/10/12 07:38:28;;;;;;;12.27;10.57;;;;;;;13.70;60.25;98280.19;8284173;28;20252;-65
2021/10/12 07:42:31;;;;;;;11.20;9.33;;;;;;;13.67;60.08;98269.94;8284143;28;20201;-65
2021/10/12 07:46:34;;;;;;;11.60;8.73;;;;;;;13.61;59.88;98268.50;8284003;28;20205;-65
2021/10/12 07:50:37;;;;;;;12.83;9.50;;;;;;;13.71;59.86;98276.69;8284051;28;20206;-65
2021/10/12 07:54:47;;;;;;;13.53;9.23;;;;;;;13.81;59.52;98257.03;8284054;28;20212;-65
2021/10/12 07:58:50;;;;;;;12.85;9.43;;;;;;;14.38;57.53;98261.78;8281799;28;20610;-65
2021/10/12 08:02:53;;;;;;;11.07;8.53;;;;;;;14.50;58.34;98268.09;8283608;28;20506;-64
2021/10/12 08:06:57;;;;;;;10.97;8.13;;;;;;;14.34;57.16;98254.25;8283876;28;20497;-65
2021/10/12 08:11:03;;;;;;;12.13;8.27;;;;;;;14.42;58.00;98252.03;8283754;28;20222;-66
2021/10/12 08:15:06;;;;;;;9.77;7.53;;;;;;;14.30;57.11;98248.34;8283983;28;20202;-66
2021/10/12 08:19:09;;;;;;;15.70;8.20;;;;;;;14.92;56.13;98252.75;8285356;28;20415;-66
2021/10/12 08:23:12;;;;;;;8.03;6.20;;;;;;;14.20;57.63;98249.75;8289763;28;20227;-66
2021/10/12 08:27:16;;;;;;;9.40;6.53;;;;;;;14.66;56.82;98242.06;8289474;28;20430;-66
2021/10/12 08:31:19;;;;;;;10.47;5.97;;;;;;;14.41;57.45;98242.53;8289652;28;20206;-66
2021/10/12 08:35:22;;;;;;;8.93;5.10;;;;;;;14.24;57.73;98243.47;8289263;28;20242;-66
2021/10/12 08:39:30;;;;;;;10.57;5.20;;;;;;;14.43;57.12;98241.53;8289213;28;20202;-67
2021/10/12 08:43:34;;;;;;;7.90;4.93;;;;;;;14.60;57.23;98235.41;8289323;28;20273;-66
2021/10/12 08:47:38;;;;;;;7.57;4.77;;;;;;;14.65;56.49;98232.53;8289067;28;20213;-66
2021/10/12 08:51:43;;;;;;;7.70;4.37;;;;;;;14.93;56.17;98228.38;8288938;28;20201;-66
2021/10/12 08:55:50;;;;;;;5.87;4.40;;;;;;;14.88;56.77;98222.56;8288896;28;20547;-66
2021/10/12 08:59:55;;;;;;;6.47;3.80;;;;;;;14.98;55.84;98211.53;8288483;28;20209;-66
2021/10/12 09:04:03;;;;;;;6.13;4.07;;;;;;;15.00;55.97;98216.63;8288433;28;20408;-65
2021/10/12 09:08:06;;;;;;;7.07;4.70;;;;;;;14.61;56.14;98220.63;8288569;28;20434;-65
2021/10/12 09:12:09;;;;;;;7.87;4.80;;;;;;;14.60;55.87;98209.34;8288187;28;20272;-65
2021/10/12 09:16:15;;;;;;;10.80;5.13;;;;;;;14.65;55.52;98199.50;8288219;28;20229;-65
2021/10/12 09:20:29;;;;;;;5.67;3.80;;;;;;;14.38;54.51;98194.06;8288212;28;20291;-65
2021/10/12 09:24:39;;;;;;;5.00;3.80;;;;;;;14.72;54.94;98194.78;8287873;28;20208;-65
2021/10/12 09:28:42;;;;;;;9.07;3.77;;;;;;;14.64;55.05;98189.16;8286979;28;20237;-65
2021/10/12 09:32:58;;;;;;;6.20;4.20;;;;;;;14.66;55.03;98174.28;8287481;28;20639;-65
2021/10/12 09:37:01;;;;;;;5.77;3.97;;;;;;;14.93;55.23;98177.03;8287339;28;20226;-66
2021/10/12 09:41:07;;;;;;;5.30;4.00;;;;;;;15.12;54.30;98163.75;8287549;28;20202;-67
2021/10/12 09:45:10;;;;;;;6.97;4.17;;;;;;;15.70;53.11;98164.56;8287503;28;20403;-66
2021/10/12 09:49:17;;;;;;;6.33;3.77;;;;;;;15.58;51.45;98149.69;8287012;28;20213;-67
2021/10/12 09:53:32;;;;;;;4.77;3.40;;;;;;;15.57;52.09;98154.06;8287197;28;20202;-65
2021/10/12 09:57:36;;;;;;;6.40;3.80;;;;;;;15.54;52.08;98141.22;8286549;28;20234;-66
2021/10/12 10:01:40;;;;;;;5.43;3.47;;;;;;;15.79;51.90;98142.31;8286448;28;20206;-66
2021/10/12 10:05:44;;;;;;;6.40;4.10;;;;;;;15.39;52.09;98131.72;8286642;28;20232;-65
2021/10/12 10:09:48;;;;;;;5.30;3.43;;;;;;;15.60;51.98;98143.44;8286337;28;20217;-66
2021/10/12 10:13:51;;;;;;;4.67;3.57;;;;;;;15.43;51.87;98134.03;8286240;28;20488;-67
2021/10/12 10:17:56;;;;;;;4.63;3.10;;;;;;;16.42;49.20;98130.44;8286137;28;20236;-61
2021/10/12 10:22:00;;;;;;;5.07;3.10;;;;;;;15.76;49.29;98121.63;8286040;28;20209;-62
2021/10/12 10:26:33;;;;;;;4.77;3.07;;;;;;;16.19;49.40;98122.31;8285967;28;20209;-62
2021/10/12 10:30:36;;;;;;;4.73;3.40;;;;;;;16.23;48.88;98115.13;8284078;28;20385;-62
2021/10/12 10:34:40;;;;;;;4.77;3.10;;;;;;;15.75;50.13;98106.91;8285600;28;20244;-61
2021/10/12 10:38:46;;;;;;;5.50;3.63;;;;;;;15.54;51.06;98111.66;8308031;28;20239;-62
2021/10/12 10:42:56;;;;;;;5.33;3.60;;;;;;;15.30;50.73;98103.56;8317693;28;20209;-62
2021/10/12 10:46:59;;;;;;;6.00;3.90;;;;;;;15.05;51.45;98110.28;8317800;28;20208;-61
2021/10/12 10:51:20;;;;;;;5.60;4.03;;;;;;;15.26;51.57;98097.69;8317637;28;20316;-61
2021/10/12 10:55:25;;;;;;;8.03;5.47;;;;;;;15.41;51.55;98093.31;8317803;28;20520;-61
2021/10/12 10:59:28;;;;;;;6.47;4.80;;;;;;;15.33;51.30;98079.91;8317492;28;20240;-65
2021/10/12 11:03:42;;;;;;;6.87;5.27;;;;;;;15.12;52.49;98072.47;8291270;28;20209;-66
2021/10/12 11:07:45;;;;;;;6.67;5.10;;;;;;;15.16;52.64;98062.69;8300284;28;20512;-66
2021/10/12 11:11:49;;;;;;;8.07;5.50;;;;;;;15.31;52.33;98059.13;8297315;28;20417;-65
2021/10/12 11:15:52;;;;;;;6.00;4.40;;;;;;;15.31;52.18;98051.31;8300130;28;20426;-65
2021/10/12 11:19:55;;;;;;;7.07;4.53;;;;;;;15.44;51.67;98057.44;8299971;28;20407;-65
2021/10/12 11:23:58;;;;;;;7.87;4.10;;;;;;;15.44;51.65;98041.78;8299985;28;20192;-66
2021/10/12 11:28:13;;;;;;;5.63;3.80;;;;;;;15.60;51.81;98036.41;8292775;28;20241;-66
2021/10/12 11:32:16;;;;;;;5.03;3.93;;;;;;;15.20;51.99;98038.09;8283458;28;20208;-66
2021/10/12 11:36:20;;;;;;;6.10;3.93;;;;;;;15.15;53.57;98034.91;8284387;28;20204;-66
2021/10/12 11:40:25;;;;;;;7.70;4.27;;;;;;;15.07;54.59;98024.94;8284082;28;20205;-65
2021/10/12 11:44:30;;;;;;;6.97;4.80;;;;;;;15.18;55.92;98013.88;8283982;28;20198;-65
2021/10/12 11:48:36;;;;;;;5.87;4.10;;;;;;;15.25;54.57;98009.94;8284472;28;20213;-65
2021/10/12 11:52:40;;;;;;;4.80;3.43;;;;;;;15.68;53.40;98003.75;8285517;28;20209;-66
2021/10/12 11:56:43;;;;;;;4.23;3.50;;;;;;;15.37;52.54;98006.56;8290604;28;20225;-65
2021/10/12 12:00:48;;;;;;;4.67;3.20;;;;;;;15.47;53.04;98001.59;8290350;28;20519;-65
2021/10/12 12:04:52;;;;;;;4.63;3.10;;;;;;;15.18;52.47;97995.59;8290199;28;20201;-61
2021/10/12 12:08:56;;;;;;;4.80;3.20;;;;;;;15.22;52.15;97997.91;8289983;28;20218;-61
2021/10/12 12:12:59;;;;;;;5.47;3.60;;;;;;;14.89;52.30;97987.81;8295985;28;20390;-61
2021/10/12 12:17:13;;;;;;;5.90;3.30;;;;;;;15.21;51.85;97982.34;8308028;28;20231;-61
2021/10/12 12:21:27;;;;;;;6.13;2.93;;;;;;;14.90;51.94;97983.44;8308966;28;20201;-61
2021/10/12 12:25:30;;;;;;;4.93;3.10;;;;;;;14.86;52.31;97980.19;8287573;28;20200;-61
2021/10/12 12:29:33;;;;;;;7.50;3.40;;;;;;;14.78;52.14;97969.41;8288586;28;20220;-61
2021/10/12 12:33:42;;;;;;;5.90;3.83;;;;;;;15.04;51.84;97976.44;8288419;28;20293;-61
2021/10/12 12:37:56;;;;;;;4.93;3.87;;;;;;;14.99;52.27;97969.84;8287861;28;20229;-61
2021/10/12 12:41:59;;;;;;;6.17;3.90;;;;;;;14.96;52.39;97967.41;8289154;28;20202;-61
2021/10/12 12:46:09;;;;;;;7.57;4.37;;;;;;;14.96;52.68;97964.78;8302241;28;20197;-65
2021/10/12 12:50:15;;;;;;;7.40;4.17;;;;;;;14.80;53.18;97957.94;8321555;28;20611;-65
2021/10/12 12:54:36;;;;;;;7.13;4.60;;;;;;;14.92;53.08;97958.09;8321126;28;20201;-65
2021/10/12 12:58:40;;;;;;;7.90;4.60;;;;;;;14.95;53.32;97947.50;8321322;28;20536;-64
2021/10/12 13:02:52;;;;;;;7.50;4.40;;;;;;;14.80;53.37;97934.47;8301263;28;20220;-64
2021/10/12 13:06:57;;;;;;;7.80;4.50;;;;;;;14.96;53.16;97939.56;8288518;28;20202;-67
2021/10/12 13:11:00;;;;;;;6.87;4.53;;;;;;;15.03;53.04;97930.41;8307597;28;20405;-65
2021/10/12 13:15:03;;;;;;;7.10;4.47;;;;;;;15.09;53.34;97936.19;8320584;28;20247;-65
2021/10/12 13:19:06;;;;;;;8.67;5.40;;;;;;;14.74;53.62;97919.22;8294161;28;20222;-64
2021/10/12 13:23:13;;;;;;;8.93;5.50;;;;;;;15.13;53.10;97919.41;8287900;28;20209;-65
2021/10/12 13:27:16;;;;;;;6.93;5.07;;;;;;;14.90;53.51;97916.47;8287827;28;20216;-66
2021/10/12 13:31:19;;;;;;;6.10;5.03;;;;;;;15.07;53.37;97914.59;8287831;28;20209;-65
2021/10/12 13:35:22;;;;;;;9.37;4.80;;;;;;;14.95;53.25;97914.44;8287815;28;20256;-65
2021/10/12 13:39:26;;;;;;;6.27;4.30;;;;;;;14.77;53.91;97913.78;8295003;28;20325;-65
2021/10/12 13:43:29;;;;;;;6.13;4.37;;;;;;;14.96;54.06;97917.88;8314955;28;20492;-66
2021/10/12 13:47:33;;;;;;;5.63;4.30;;;;;;;15.00;54.04;97920.19;8319956;28;20205;-66
2021/10/12 13:51:35;;;;;;;7.30;4.50;;;;;;;15.01;54.06;97906.22;8319538;28;20518;-66
2021/10/12 13:55:40;;;;;;;8.97;4.90;;;;;;;14.91;55.61;97904.28;8319458;28;20489;-64
2021/10/12 13:59:43;;;;;;;8.60;5.27;;;;;;;14.66;57.38;97901.44;8319219;28;20555;-66
2021/10/12 14:03:46;;;;;;;9.00;4.97;;;;;;;14.63;57.48;97895.59;8291005;28;20221;-66
2021/10/12 14:07:49;;;;;;;8.23;5.00;;;;;;;14.72;58.09;97902.00;8286691;28;20457;-67
2021/10/12 14:11:53;;;;;;;6.97;4.93;;;;;;;14.68;58.23;97898.75;8305968;28;20343;-65
2021/10/12 14:15:57;;;;;;;9.00;4.57;;;;;;;14.50;58.59;97905.88;8318066;28;20201;-66
2021/10/12 14:20:00;;;;;;;7.77;5.00;;;;;;;14.30;58.35;97894.09;8318716;28;20412;-66
2021/10/12 14:24:04;;;;;;;6.83;5.10;;;;;;;14.54;58.83;97899.53;8318483;28;20208;-65
2021/10/12 14:28:08;;;;;;;8.03;4.97;;;;;;;14.46;58.08;97892.19;8318172;28;20209;-65
2021/10/12 14:32:14;;;;;;;6.83;4.87;;;;;;;14.57;58.37;97891.59;8318103;28;20201;-67
2021/10/12 14:36:17;;;;;;;8.07;4.90;;;;;;;14.36;58.72;97890.28;8318081;28;20201;-68
2021/10/12 14:40:21;;;;;;;11.37;5.70;;;;;;;14.54;58.56;97888.28;8318044;28;20598;-67
2021/10/12 14:44:25;;;;;;;7.93;5.13;;;;;;;14.33;58.74;97883.47;8317956;28;20201;-67
2021/10/12 14:48:28;;;;;;;10.77;5.67;;;;;;;14.35;59.05;97879.00;8317754;28;20270;-67
2021/10/12 14:52:31;;;;;;;8.87;4.67;;;;;;;14.30;58.55;97878.47;8317689;28;20228;-67
2021/10/12 14:56:34;;;;;;;7.80;4.77;;;;;;;14.42;58.59;97872.47;8317555;28;20205;-67
2021/10/12 15:00:39;;;;;;;8.60;5.07;;;;;;;14.35;58.95;97875.56;8314764;28;20231;-68
2021/10/12 15:04:42;;;;;;;7.27;4.37;;;;;;;14.21;59.23;97871.19;8284736;28;20205;-67
2021/10/12 15:08:45;;;;;;;8.53;4.87;;;;;;;14.31;58.97;97869.69;8284987;28;20389;-67
2021/10/12 15:12:48;;;;;;;8.40;3.97;;;;;;;14.41;59.25;97862.16;8284404;28;20232;-67
2021/10/12 15:16:52;;;;;;;10.87;6.33;;;;;;;14.47;59.33;97854.81;8284807;28;20228;-67
2021/10/12 15:20:55;;;;;;;9.67;6.30;;;;;;;14.49;59.67;97862.53;8284405;28;20226;-68
2021/10/12 15:24:58;;;;;;;9.50;5.27;;;;;;;14.31;60.04;97853.25;8284435;28;20202;-74
2021/10/12 15:29:01;;;;;;;9.93;5.83;;;;;;;14.22;60.22;97855.47;8283753;28;20210;-69
2021/10/12 15:33:05;;;;;;;11.80;6.17;;;;;;;14.10;60.86;97851.00;8305807;28;20229;-69
2021/10/12 15:37:09;;;;;;;10.30;6.23;;;;;;;13.97;61.20;97847.47;8284582;28;20508;-69
2021/10/12 15:41:12;;;;;;;12.50;6.10;;;;;;;13.95;61.24;97839.75;8254326;28;20233;-69
2021/10/12 15:45:15;;;;;;;9.97;6.17;;;;;;;13.96;61.00;97845.81;8260445;28;20221;-69
2021/10/12 15:49:21;;;;;;;9.67;6.17;;;;;;;13.99;61.46;97828.25;8309971;28;20201;-69
2021/10/12 15:53:24;;;;;;;8.53;5.77;;;;;;;13.84;61.53;97840.41;8316806;28;20311;-69
2021/10/12 15:57:28;;;;;;;9.07;5.50;;;;;;;14.01;61.64;97836.78;8316632;28;20224;-69
2021/10/12 16:01:31;;;;;;;10.67;6.30;;;;;;;13.97;61.60;97840.47;8306479;28;20222;-69
2021/10/12 16:05:35;;;;;;;11.40;6.30;;;;;;;13.96;61.42;97840.59;8306623;28;20497;-69
2021/10/12 16:09:39;;;;;;;10.73;6.77;;;;;;;14.02;61.23;97838.44;8316340;28;20205;-70
2021/10/12 16:13:42;;;;;;;11.63;6.40;;;;;;;13.93;61.33;97832.97;8316293;28;20402;-69
2021/10/12 16:22:17;;;;;;;11.60;6.70;;;;;;;13.88;61.88;97841.06;8283207;28;20209;-68
2021/10/12 16:26:20;;;;;;;10.47;6.20;;;;;;;13.74;62.40;97828.84;8283680;28;20489;-68
2021/10/12 16:30:24;;;;;;;9.73;6.10;;;;;;;13.82;61.78;97833.59;8283659;28;20516;-69
2021/10/12 16:34:29;;;;;;;10.73;6.70;;;;;;;13.83;62.07;97835.28;8283330;28;20536;-69
2021/10/12 16:38:33;;;;;;;8.73;5.30;;;;;;;13.75;61.88;97833.13;8284177;28;20231;-68
2021/10/12 16:42:38;;;;;;;9.03;5.50;;;;;;;13.82;61.85;97847.47;8289021;28;20213;-69
2021/10/12 16:46:43;;;;;;;12.63;5.87;;;;;;;13.91;61.37;97837.44;8289121;28;20206;-68
2021/10/12 16:50:46;;;;;;;7.67;5.43;;;;;;;13.71;62.17;97842.06;8288901;28;20212;-69
2021/10/12 16:54:51;;;;;;;8.93;5.67;;;;;;;13.81;62.23;97832.75;8288829;28;20209;-68
2021/10/12 17:03:10;;;;;;;12.13;5.60;;;;;;;13.59;63.48;97846.19;8291059;28;20235;-67
2021/10/12 17:07:13;;;;;;;7.30;5.33;;;;;;;13.53;63.72;97896.00;8312728;28;20216;-67
2021/10/12 17:11:18;;;;;;;4.40;1.83;;;;;;;13.54;59.67;97879.47;8312332;28;20221;-67
2021/10/12 17:15:21;;;;;;;1.70;1.10;;;;;;;13.32;58.42;97890.25;8287686;28;20202;-66
2021/10/12 17:19:24;;;;;;;5.10;1.30;;;;;;;13.39;57.90;97888.16;8303542;28;20228;-66
2021/10/12 17:23:28;;;;;;;3.10;1.20;;;;;;;13.23;58.20;97898.53;8317319;28;20206;-65
2021/10/12 17:27:33;;;;;;;4.13;2.10;;;;;;;13.35;58.14;97894.47;8320402;28;20382;-65
2021/10/12 17:31:37;;;;;;;4.03;2.00;;;;;;;13.38;58.45;97886.47;8320077;28;20401;-66
2021/10/12 17:35:40;;;;;;;6.23;2.90;;;;;;;13.35;59.07;97878.84;8319987;28;20243;-67
2021/10/12 17:39:43;;;;;;;4.03;2.20;;;;;;;13.41;58.78;97881.94;8319803;28;20547;-67
2021/10/12 17:43:48;;;;;;;4.63;3.63;;;;;;;13.29;58.78;97895.63;8302550;28;20202;-67
2021/10/12 17:47:51;;;;;;;5.67;2.37;;;;;;;13.30;59.15;97898.13;8287280;28;20209;-67
2021/10/12 17:51:54;;;;;;;4.20;2.50;;;;;;;13.28;59.85;97912.97;8285804;28;20205;-67
2021/10/12 17:55:57;;;;;;;16.07;2.63;;;;;;;15.04;62.98;97918.22;8286563;28;20202;-71
2021/10/12 18:00:01;;;;;;;15.73;2.83;;;;;;;15.57;57.33;97913.09;8286767;28;20237;-71
2021/10/12 18:04:04;;;;;;;15.90;2.70;;;;;;;15.87;55.14;97922.47;8286574;28;20213;-70
2021/10/12 18:08:07;;;;;;;7.27;2.37;;;;;;;15.94;53.52;97919.34;8286695;28;20210;-70
2021/10/12 18:12:10;;;;;;;9.77;2.57;;;;;;;16.07;52.66;97915.91;8286376;28;20221;-70
2021/10/12 18:16:14;;;;;;;7.90;1.93;;;;;;;15.90;50.77;97906.63;8286404;28;20201;-70
2021/10/12 18:20:17;;;;;;;4.93;1.73;;;;;;;16.13;51.32;97895.44;8286267;28;20414;-71
2021/10/12 18:24:20;;;;;;;1.77;1.03;;;;;;;14.93;53.24;97895.44;8286108;28;20201;-66
2021/10/12 18:28:23;;;;;;;2.80;1.20;;;;;;;14.54;54.77;97904.75;8301987;28;20400;-66
2021/10/12 18:32:27;;;;;;;1.83;1.17;;;;;;;14.30;55.40;97919.28;8318278;28;20235;-66
2021/10/12 18:36:30;;;;;;;3.17;1.90;;;;;;;14.13;56.33;97920.31;8317986;28;20197;-64
2021/10/12 18:40:33;;;;;;;2.90;2.10;;;;;;;13.98;56.30;97919.44;8318087;28;20232;-64
2021/10/12 18:44:36;;;;;;;3.43;1.80;;;;;;;13.88;56.48;97924.38;8294041;28;20201;-64
2021/10/12 18:49:02;;;;;;;5.27;2.00;;;;;;;13.73;57.68;97940.84;8285377;28;20201;-64
2021/10/12 18:53:07;;;;;;;4.20;3.30;;;;;;;13.59;57.82;97946.84;8285581;28;20366;-64
2021/10/12 18:57:11;;;;;;;4.33;3.13;;;;;;;13.32;58.02;97944.03;8285400;28;20213;-65
2021/10/12 19:01:14;;;;;;;6.32;5.10;;;;;;;13.75;56.80;97944.22;8283944;28;20448;-64
2021/10/12 19:05:18;;;;;;;6.07;4.80;;;;;;;13.41;58.04;97949.56;8284829;28;20202;-65
2021/10/12 19:09:21;;;;;;;6.03;4.90;;;;;;;13.25;58.24;97949.56;8285094;28;20205;-64